Metars

EGJB - Guernsey Airport
Distance from station: SW 8km

NOT Current
Few Clouds
Few Clouds
 Wind from W
Wind: W 9 mph , 15 km/h
Temperature: 16°C
Dew Point: 15°C
Humidity: 94%
Barometer: 1015 hPa
Clouds: Few Clouds
Visibility: 6 miles , 10 km
Cloud details: Few Clouds 91 m
2017/07/25 19:50 EGJB 251950Z 26008KT 9999 FEW003 16/15 Q1015
EGJA - Alderney Airport
Distance from station: NE 37km

NOT Current
Mostly Cloudy
Mostly Cloudy
 Wind from WSW
Wind: WSW 8 mph , 13 km/h
Temperature: 16°C
Dew Point: 15°C
Humidity: 94%
Barometer: 1015 hPa
Clouds: Mostly Cloudy
Visibility: 6 miles , 10 km
Cloud details: Partly Cloudy 91 m
Mostly Cloudy 122 m
2017/07/25 17:50 EGJA 251750Z 24007KT 9999 SCT003 BKN004 16/15 Q1015
EGJJ - Jersey Airport
Distance from station: SE 37km

NOT Current
Partly Cloudy
Partly Cloudy
 Wind from W
Wind: W 8 mph , 13 km/h
Temperature: 15°C
Dew Point: 15°C
Humidity: 100%
Barometer: 1015 hPa
Clouds: Partly Cloudy
Visibility: 6 miles , 10 km
Cloud details: Partly Cloudy 91 m
2017/07/25 20:50 EGJJ 252050Z 28007KT 9999 SCT003 15/15 Q1015 NOSIG